Aviation Digital Data Service (ADDS)

Output produced by METARs form (0506 UTC 16 February 2019)
found at http://www.aviationweather.gov/metar/data/
 
Forecast for: VOBG (BANGALORE ARP , IN)
Text: TAF VOBG 160500Z 1606/1615 14010KT 8000 SCT015
Forecast period: 0600 to 1500 UTC 16 February 2019
Forecast type: FROM: standard forecast or significant change
Winds: from the SE (140 degrees) at 12 MPH (10 knots; 5.1 m/s)
Visibility: 5 miles (8 km)
Ceiling: at least 12,000 feet AGL
Clouds: scattered clouds at 1500 feet AGL
Weather: no significant weather forecast for this period
Text: TEMPO 1609/1612 VRB02KT 5000 DZ SCT012 SCT020 FEW025CB
Forecast period: 0900 to 1200 UTC 16 February 2019
Forecast type: TEMPORARY: The following changes expected for less than half the time period
Winds: variable direction winds at 2 MPH (2 knots; 1.0 m/s)
Visibility: 3 miles (5 km)
Ceiling: at least 12,000 feet AGL
Clouds: scattered clouds at 1200 feet AGL
scattered clouds at 2000 feet AGL
few clouds at 2500 feet AGL
Weather: DZ  (moderate drizzle)